°C

Conditions at local time : on    Forecast:

Nearby METAR Reports





EGKA - Shoreham-By-Sea, United Kingdom
Distance from station: ENE 4mi, 6km
Updated: Sun, 17-Oct-2021 5:50pm BST
NOT Current
Clear
Clear
 Wind from SSW
Wind: SSW 9 mph , 15 km/h
Temperature: 15°C
Dew Point: 11°C
Humidity: 77%
Barometer: 1017 hPa
Summary: Clear
Visibility: greater than 7 miles , 10 km
2021/10/17 16:50 EGKA 171650Z 20008KT CAVOK 15/11 Q1017
EGKK - London/Gatwick A, United Kingdom
Distance from station: NNE 24mi, 39km
Updated: Mon, 18-Oct-2021 5:20am BST
Fog, Overcast
Fog, Overcast
 Wind from ENE
Wind: ENE 1 mph , 2 km/h
Temperature: 7°C
Dew Point: 7°C
Humidity: 100%
Barometer: 1018 hPa
Summary: Fog
Clouds: Overcast
Visibility: 0 mile , 0 km
Cloud details: Overcast 30 m
2021/10/18 04:20 EGKK 180420Z 06001KT 0400 R26L/0275 FG OVC001 07/07 Q1018
 
EGLF - Farnborough, United Kingdom
Distance from station: NNW 37mi, 59km
Updated: Mon, 18-Oct-2021 5:20am BST
Mist, Clear
Mist, Clear
 Wind from SSE
Wind: SSE 5 mph , 7 km/h
Temperature: 8°C
Wind Chill: 7°C
Dew Point: 8°C
Humidity: 100%
Barometer: 1017 hPa
Summary: Mist
Clouds: Clear
Visibility: 3 miles , 5 km
2021/10/18 04:20 EGLF 180420Z AUTO 15004KT 5000 BR NCD 08/08 Q1017
EGVO - Odiham Raf, United Kingdom
Distance from station: NW 38mi, 61km
Updated: Mon, 18-Oct-2021 4:50am BST
Fog, Few clouds
Fog, Few clouds
 Wind from ESE
Wind: ESE 8 mph , 13 km/h
Temperature: 8°C
Wind Chill: 6°C
Dew Point: 8°C
Humidity: 100%
Barometer: 1017 hPa
Summary: Fog
Clouds: Few Clouds
Visibility: 0 mile , 0 km
Cloud details: Few Clouds 30 m
2021/10/18 03:50 EGVO 180350Z AUTO 12007KT 0200 FG FEW001/// 08/08 Q1017